Time;durP1;ratioP1;P1;durP2;ratioP2;P2;SDS_P1;SDS_P2;PMS_P1;PMS_P2;Temp;Humidity;BMP_temperature;BMP_pressure;BME280_temperature;BME280_humidity;BME280_pressure;Samples;Min_cycle;Max_cycle;Signal;HPM_P1;HPM_P2
2021/09/07 00:01:23;;;;;;;19.23;16.20;;;18.70;99.90;;;;;;5012433;28;20960;-52
2021/09/07 00:03:51;;;;;;;17.43;14.70;;;18.80;99.90;;;;;;5012544;28;20434;-51
2021/09/07 00:06:17;;;;;;;16.57;14.00;;;18.70;99.90;;;;;;5012182;28;20522;-52
2021/09/07 00:08:44;;;;;;;19.10;15.10;;;18.70;99.90;;;;;;5011739;28;20451;-52
2021/09/07 00:11:12;;;;;;;20.17;14.97;;;18.70;99.90;;;;;;5012751;28;20521;-52
2021/09/07 00:13:38;;;;;;;15.47;13.80;;;18.70;99.90;;;;;;5012461;28;20450;-52
2021/09/07 00:16:05;;;;;;;16.07;14.00;;;18.70;99.90;;;;;;5012511;28;20444;-51
2021/09/07 00:18:34;;;;;;;15.23;13.63;;;18.70;99.90;;;;;;5011844;28;20432;-52
2021/09/07 00:21:01;;;;;;;18.43;14.93;;;18.70;99.90;;;;;;5012250;28;20480;-52
2021/09/07 00:23:28;;;;;;;17.50;14.53;;;18.70;99.90;;;;;;5012256;28;20810;-52
2021/09/07 00:25:55;;;;;;;16.10;14.40;;;18.70;99.90;;;;;;5012434;28;20444;-51
2021/09/07 00:28:22;;;;;;;17.20;14.37;;;18.70;99.90;;;;;;5015599;28;20486;-50
2021/09/07 00:30:48;;;;;;;15.83;14.13;;;18.70;99.90;;;;;;5013254;28;20458;-52
2021/09/07 00:33:15;;;;;;;18.53;13.90;;;18.70;99.90;;;;;;5012605;28;20877;-52
2021/09/07 00:35:41;;;;;;;17.10;13.13;;;18.60;99.90;;;;;;5012482;28;20436;-52
2021/09/07 00:38:11;;;;;;;19.10;15.80;;;18.60;99.90;;;;;;5011790;28;20435;-52
2021/09/07 00:40:38;;;;;;;17.63;14.40;;;18.60;99.90;;;;;;5012207;28;20427;-52
2021/09/07 00:43:05;;;;;;;15.90;14.10;;;18.60;99.90;;;;;;5012055;28;20483;-52
2021/09/07 00:45:31;;;;;;;18.03;14.00;;;18.50;99.90;;;;;;5012088;28;20820;-52
2021/09/07 00:47:58;;;;;;;15.67;13.97;;;18.60;99.90;;;;;;5011618;28;20478;-52
2021/09/07 00:50:25;;;;;;;18.93;14.97;;;18.60;99.90;;;;;;5012868;28;20442;-52
2021/09/07 00:52:52;;;;;;;20.23;14.57;;;18.60;99.90;;;;;;5011960;28;20455;-52
2021/09/07 00:55:22;;;;;;;17.60;13.53;;;18.60;99.90;;;;;;5011852;28;20981;-52
2021/09/07 00:57:51;;;;;;;21.53;14.70;;;18.60;99.90;;;;;;5011513;28;20482;-53
2021/09/07 01:00:18;;;;;;;17.23;13.00;;;18.60;99.90;;;;;;5011829;28;20443;-50
2021/09/07 01:02:45;;;;;;;15.60;13.40;;;18.50;99.90;;;;;;5014669;28;20498;-52
2021/09/07 01:05:12;;;;;;;15.73;13.47;;;18.60;99.90;;;;;;5015964;28;20439;-52
2021/09/07 01:07:39;;;;;;;15.10;13.50;;;18.60;99.90;;;;;;5015459;28;20493;-52
2021/09/07 01:10:08;;;;;;;17.47;13.10;;;18.60;99.90;;;;;;5016008;28;20431;-52
2021/09/07 01:12:37;;;;;;;18.33;16.33;;;18.50;99.90;;;;;;5014428;28;20561;-53
2021/09/07 01:15:06;;;;;;;16.73;13.17;;;18.50;99.90;;;;;;5015934;28;20516;-52
2021/09/07 01:17:33;;;;;;;15.20;13.60;;;18.50;99.90;;;;;;5015763;28;20443;-52
2021/09/07 01:20:01;;;;;;;16.07;14.37;;;18.50;99.90;;;;;;5015338;28;20519;-53
2021/09/07 01:22:28;;;;;;;15.10;12.80;;;18.40;99.90;;;;;;5015452;28;20458;-51
2021/09/07 01:24:56;;;;;;;15.50;13.30;;;18.40;99.90;;;;;;5015525;28;20454;-52
2021/09/07 01:27:23;;;;;;;16.60;13.93;;;18.20;99.90;;;;;;5015321;28;20561;-52
2021/09/07 01:29:51;;;;;;;16.87;13.30;;;18.30;99.90;;;;;;5015312;28;20531;-53
2021/09/07 01:32:19;;;;;;;17.50;14.50;;;18.20;99.90;;;;;;5015185;28;21038;-52
2021/09/07 01:34:46;;;;;;;17.60;14.77;;;18.10;99.90;;;;;;5014090;28;20450;-52
2021/09/07 01:37:13;;;;;;;17.20;13.30;;;18.10;99.90;;;;;;5015331;28;20447;-51
2021/09/07 01:39:40;;;;;;;19.20;13.90;;;18.10;99.90;;;;;;5014883;28;20538;-52
2021/09/07 01:42:08;;;;;;;17.27;14.00;;;18.00;99.90;;;;;;5015181;28;20482;-52
2021/09/07 01:44:40;;;;;;;19.20;14.90;;;18.00;99.90;;;;;;5018154;28;20498;-52
2021/09/07 01:47:08;;;;;;;21.03;14.17;;;17.90;99.90;;;;;;5016782;28;20801;-53
2021/09/07 01:49:34;;;;;;;20.60;15.60;;;17.90;99.90;;;;;;5014809;28;20439;-51
2021/09/07 01:52:08;;;;;;;15.83;14.13;;;17.90;99.90;;;;;;5015494;28;20475;-52
2021/09/07 01:54:35;;;;;;;20.63;15.47;;;17.80;99.90;;;;;;5015043;28;20433;-53
2021/09/07 01:57:02;;;;;;;16.90;14.50;;;17.70;99.90;;;;;;5014941;28;20458;-53
2021/09/07 01:59:31;;;;;;;17.97;15.50;;;17.80;99.90;;;;;;5014404;28;20432;-52
2021/09/07 02:01:57;;;;;;;18.87;15.40;;;17.70;99.90;;;;;;5014970;28;20437;-51
2021/09/07 02:04:24;;;;;;;18.77;14.70;;;17.80;99.90;;;;;;5014853;28;20437;-51
2021/09/07 02:06:50;;;;;;;17.80;14.30;;;17.70;99.90;;;;;;5015181;28;20449;-52
2021/09/07 02:09:19;;;;;;;21.83;16.20;;;17.70;99.90;;;;;;5014564;28;20435;-51
2021/09/07 02:11:47;;;;;;;18.70;14.43;;;17.70;99.90;;;;;;5014680;28;20453;-52
2021/09/07 02:14:13;;;;;;;19.20;14.93;;;17.60;99.90;;;;;;5014923;28;20435;-51
2021/09/07 02:16:42;;;;;;;17.23;15.00;;;17.60;99.90;;;;;;5014668;28;20545;-52
2021/09/07 02:19:11;;;;;;;21.00;15.60;;;17.60;99.90;;;;;;5014626;28;20498;-52
2021/09/07 02:21:38;;;;;;;16.90;14.97;;;17.50;99.90;;;;;;5014392;28;20962;-53
2021/09/07 02:24:05;;;;;;;20.13;16.23;;;17.60;99.90;;;;;;5014714;28;20437;-51
2021/09/07 02:26:32;;;;;;;19.13;15.60;;;17.50;99.90;;;;;;5014567;28;20784;-53
2021/09/07 02:29:00;;;;;;;18.90;15.03;;;17.50;99.90;;;;;;5013975;28;20517;-53
2021/09/07 02:31:28;;;;;;;22.07;16.20;;;17.50;99.90;;;;;;5014090;28;20520;-52
2021/09/07 02:33:56;;;;;;;19.63;14.93;;;17.50;99.90;;;;;;5014447;28;20453;-53
2021/09/07 02:36:24;;;;;;;20.70;16.10;;;17.50;99.90;;;;;;5014742;28;20449;-53
2021/09/07 02:38:53;;;;;;;17.97;16.07;;;17.40;99.90;;;;;;5013981;28;20477;-53
2021/09/07 02:41:20;;;;;;;19.33;15.10;;;17.40;99.90;;;;;;5014325;28;20553;-52
2021/09/07 02:43:47;;;;;;;19.13;16.37;;;17.30;99.90;;;;;;5014183;28;20441;-53
2021/09/07 02:46:16;;;;;;;19.17;16.03;;;17.30;99.90;;;;;;5014041;28;20561;-51
2021/09/07 02:48:43;;;;;;;23.13;14.80;;;17.00;99.90;;;;;;5013550;28;20477;-52
2021/09/07 02:51:11;;;;;;;16.23;14.40;;;17.30;99.90;;;;;;5013938;28;20549;-52
2021/09/07 02:53:40;;;;;;;21.13;17.00;;;17.20;99.90;;;;;;5013914;28;20483;-52
2021/09/07 02:56:07;;;;;;;19.83;14.80;;;17.20;99.90;;;;;;5013999;28;20441;-52
2021/09/07 02:58:35;;;;;;;18.13;15.50;;;17.20;99.90;;;;;;5013537;28;20433;-51
2021/09/07 03:01:02;;;;;;;20.63;15.80;;;17.10;99.90;;;;;;5014357;28;20471;-52
2021/09/07 03:03:33;;;;;;;22.03;16.40;;;17.10;99.90;;;;;;5016236;28;20440;-54
2021/09/07 03:06:01;;;;;;;19.90;16.30;;;17.10;99.90;;;;;;5014022;28;20551;-52
2021/09/07 03:08:31;;;;;;;21.10;16.00;;;17.10;99.90;;;;;;5013155;28;21022;-53
2021/09/07 03:10:58;;;;;;;26.27;17.00;;;17.00;99.90;;;;;;5013567;28;20442;-53
2021/09/07 03:13:25;;;;;;;18.23;16.10;;;17.10;99.90;;;;;;5013433;28;20432;-52
2021/09/07 03:15:52;;;;;;;20.73;16.87;;;17.00;99.90;;;;;;5013806;28;20438;-53
2021/09/07 03:18:19;;;;;;;22.40;16.23;;;16.90;99.90;;;;;;5013088;28;20430;-52
2021/09/07 03:20:46;;;;;;;20.00;15.73;;;16.90;99.90;;;;;;5013374;28;20528;-53
2021/09/07 03:23:14;;;;;;;26.00;18.53;;;16.90;99.90;;;;;;5013497;28;20597;-52
2021/09/07 03:25:43;;;;;;;21.67;17.83;;;16.90;99.90;;;;;;5012699;28;20957;-52
2021/09/07 03:28:11;;;;;;;21.83;16.13;;;16.90;99.90;;;;;;5011585;28;20482;-52
2021/09/07 03:30:39;;;;;;;26.17;18.37;;;16.80;99.90;;;;;;5013228;28;20451;-52
2021/09/07 03:33:06;;;;;;;27.23;17.07;;;16.80;99.90;;;;;;5012938;28;20477;-52
2021/09/07 03:35:33;;;;;;;19.63;16.50;;;16.80;99.90;;;;;;5013459;28;20428;-52
2021/09/07 03:38:00;;;;;;;20.63;18.00;;;16.80;99.90;;;;;;5012870;28;20500;-52
2021/09/07 03:40:28;;;;;;;23.93;19.47;;;16.80;99.90;;;;;;5012900;28;20437;-52
2021/09/07 03:42:57;;;;;;;21.73;17.80;;;16.70;99.90;;;;;;5013844;28;20461;-53
2021/09/07 03:45:24;;;;;;;24.60;18.47;;;16.70;99.90;;;;;;5013396;28;20448;-52
2021/09/07 03:47:51;;;;;;;25.03;19.60;;;16.70;99.90;;;;;;5012737;28;20543;-52
2021/09/07 03:50:18;;;;;;;24.03;19.80;;;16.60;99.90;;;;;;5012823;28;20444;-52
2021/09/07 03:52:45;;;;;;;26.90;19.27;;;16.60;99.90;;;;;;5012678;28;20461;-53
2021/09/07 03:55:12;;;;;;;20.60;17.60;;;16.60;99.90;;;;;;5012731;28;20523;-52
2021/09/07 03:57:39;;;;;;;25.00;18.10;;;16.60;99.90;;;;;;5012718;28;20437;-51
2021/09/07 04:00:09;;;;;;;21.00;17.40;;;16.70;99.90;;;;;;5011882;28;20444;-53
2021/09/07 04:02:42;;;;;;;21.80;18.57;;;16.60;99.90;;;;;;5013250;28;20531;-53
2021/09/07 04:05:10;;;;;;;20.33;18.20;;;16.50;99.90;;;;;;5012763;28;20432;-52
2021/09/07 04:07:38;;;;;;;24.40;19.13;;;16.50;99.90;;;;;;5012166;28;20479;-53
2021/09/07 04:10:06;;;;;;;22.80;17.60;;;16.50;99.90;;;;;;5012592;28;20535;-52
2021/09/07 04:12:33;;;;;;;26.60;18.30;;;16.40;99.90;;;;;;5012308;28;20448;-52
2021/09/07 04:15:01;;;;;;;27.07;21.10;;;16.40;99.90;;;;;;5012248;28;20441;-53
2021/09/07 04:17:29;;;;;;;20.87;17.83;;;16.40;99.90;;;;;;5012826;28;20451;-53
2021/09/07 04:19:56;;;;;;;22.10;17.93;;;16.40;99.90;;;;;;5013270;28;20436;-53
2021/09/07 04:22:22;;;;;;;22.20;17.00;;;16.40;99.90;;;;;;5011915;28;20457;-53
2021/09/07 04:24:49;;;;;;;22.23;17.90;;;16.40;99.90;;;;;;5012260;28;20460;-53
2021/09/07 04:27:16;;;;;;;25.17;17.90;;;16.40;99.90;;;;;;5011949;28;20424;-53
2021/09/07 04:29:42;;;;;;;19.27;16.67;;;16.40;99.90;;;;;;5011575;28;20496;-53
2021/09/07 04:32:09;;;;;;;24.87;19.47;;;16.40;99.90;;;;;;5011579;28;20844;-53
2021/09/07 04:34:37;;;;;;;23.50;17.90;;;16.40;99.90;;;;;;5012160;28;20441;-52
2021/09/07 04:37:04;;;;;;;21.70;17.63;;;16.40;99.90;;;;;;5011249;28;20441;-53
2021/09/07 04:39:30;;;;;;;22.93;18.80;;;16.40;99.90;;;;;;5011230;28;20444;-53
2021/09/07 04:41:57;;;;;;;24.00;18.20;;;16.40;99.90;;;;;;5011795;28;20456;-52
2021/09/07 04:44:24;;;;;;;23.93;19.13;;;16.40;99.90;;;;;;5011876;28;20444;-53
2021/09/07 04:46:52;;;;;;;23.67;19.47;;;16.40;99.90;;;;;;5011923;28;20429;-53
2021/09/07 04:49:19;;;;;;;26.87;20.40;;;16.40;99.90;;;;;;5011225;28;20477;-51
2021/09/07 04:51:47;;;;;;;20.73;18.53;;;16.40;99.90;;;;;;5011774;28;20982;-53
2021/09/07 04:54:14;;;;;;;22.50;18.00;;;16.50;99.90;;;;;;5011722;28;20440;-52
2021/09/07 04:56:40;;;;;;;29.60;18.10;;;16.40;99.90;;;;;;5011471;28;20436;-52
2021/09/07 04:59:07;;;;;;;20.73;17.97;;;16.50;99.90;;;;;;5011176;28;21041;-52
2021/09/07 05:01:33;;;;;;;23.47;19.13;;;16.60;99.90;;;;;;5011243;28;20462;-53
2021/09/07 05:04:00;;;;;;;23.80;20.37;;;16.60;99.90;;;;;;5011416;28;20436;-52
2021/09/07 05:06:27;;;;;;;24.77;19.33;;;16.70;99.90;;;;;;5011910;28;20942;-54
2021/09/07 05:08:55;;;;;;;21.00;18.70;;;16.70;99.90;;;;;;5009593;28;20481;-52
2021/09/07 05:11:21;;;;;;;20.90;17.83;;;16.80;99.90;;;;;;5011205;28;20466;-52
2021/09/07 05:13:49;;;;;;;26.00;18.07;;;16.80;99.90;;;;;;5011576;28;20418;-53
2021/09/07 05:16:15;;;;;;;24.77;19.90;;;16.80;99.90;;;;;;5010839;28;20433;-51
2021/09/07 05:18:42;;;;;;;23.20;19.60;;;16.80;99.90;;;;;;5011005;28;20429;-52
2021/09/07 05:21:09;;;;;;;24.20;18.97;;;16.80;99.90;;;;;;5011072;28;20515;-52
2021/09/07 05:23:37;;;;;;;24.60;18.30;;;16.80;99.90;;;;;;5011121;28;20433;-52
2021/09/07 05:26:05;;;;;;;30.80;18.27;;;16.80;99.90;;;;;;5010980;28;20491;-52
2021/09/07 05:28:32;;;;;;;22.10;18.37;;;16.80;99.90;;;;;;5011001;28;20514;-53
2021/09/07 05:30:59;;;;;;;20.47;17.80;;;16.80;99.90;;;;;;5011069;28;20429;-53
2021/09/07 05:33:26;;;;;;;19.37;17.37;;;16.80;99.90;;;;;;5011408;28;20441;-52
2021/09/07 05:35:54;;;;;;;20.63;17.67;;;16.90;99.90;;;;;;5011368;28;20456;-53
2021/09/07 05:38:21;;;;;;;22.03;18.57;;;16.90;99.90;;;;;;5010783;28;20549;-52
2021/09/07 05:40:47;;;;;;;22.57;19.33;;;17.00;99.90;;;;;;5010706;28;20447;-52
2021/09/07 05:43:15;;;;;;;21.83;19.43;;;16.80;99.90;;;;;;5009180;28;20824;-53
2021/09/07 05:45:42;;;;;;;33.23;18.27;;;17.20;99.90;;;;;;5010777;28;20463;-52
2021/09/07 05:48:08;;;;;;;22.70;17.53;;;17.20;99.90;;;;;;5012111;28;20696;-52
2021/09/07 05:50:35;;;;;;;23.80;17.20;;;17.20;99.90;;;;;;5013569;28;20436;-54
2021/09/07 05:53:02;;;;;;;20.70;17.97;;;17.30;99.90;;;;;;5014597;28;21098;-54
2021/09/07 05:55:29;;;;;;;22.47;17.30;;;17.30;99.90;;;;;;5014506;28;20703;-52
2021/09/07 05:57:56;;;;;;;20.40;16.63;;;17.40;99.90;;;;;;5013378;28;20864;-54
2021/09/07 06:00:24;;;;;;;21.07;17.37;;;17.50;99.90;;;;;;5014340;28;20965;-53
2021/09/07 06:02:54;;;;;;;22.20;18.67;;;17.50;99.90;;;;;;5014393;28;20510;-52
2021/09/07 06:05:21;;;;;;;25.63;18.43;;;17.60;99.90;;;;;;5014507;28;20511;-53
2021/09/07 06:07:50;;;;;;;24.63;17.73;;;17.60;99.90;;;;;;5014762;28;20524;-53
2021/09/07 06:10:16;;;;;;;21.60;16.67;;;17.60;99.90;;;;;;5014637;28;20488;-52
2021/09/07 06:12:43;;;;;;;25.97;17.90;;;17.70;99.90;;;;;;5014604;28;20472;-53
2021/09/07 06:15:10;;;;;;;22.47;17.80;;;17.80;99.90;;;;;;5014400;28;20441;-53
2021/09/07 06:17:38;;;;;;;19.57;17.20;;;17.90;99.90;;;;;;5013629;28;20541;-52
2021/09/07 06:20:06;;;;;;;16.43;14.63;;;17.90;99.90;;;;;;5012399;28;20546;-52
2021/09/07 06:22:33;;;;;;;18.97;16.93;;;18.00;99.90;;;;;;5013921;28;20455;-54
2021/09/07 06:24:59;;;;;;;17.83;15.33;;;18.10;99.90;;;;;;5014166;28;20812;-53
2021/09/07 06:27:26;;;;;;;27.80;18.17;;;18.30;99.90;;;;;;5013468;28;20859;-53
2021/09/07 06:29:53;;;;;;;19.63;15.00;;;18.40;99.90;;;;;;5013292;28;20514;-52
2021/09/07 06:32:20;;;;;;;21.90;18.93;;;18.50;99.90;;;;;;5014047;28;20475;-50
2021/09/07 06:34:48;;;;;;;22.20;15.83;;;18.60;99.90;;;;;;5014364;28;20462;-49
2021/09/07 06:37:14;;;;;;;17.43;15.40;;;18.70;99.90;;;;;;5014492;28;20466;-50
2021/09/07 06:39:41;;;;;;;18.80;14.90;;;18.80;99.90;;;;;;5013832;28;20523;-51
2021/09/07 06:42:08;;;;;;;15.87;13.20;;;18.80;99.90;;;;;;5013583;28;20451;-50
2021/09/07 06:44:34;;;;;;;21.40;14.47;;;18.90;99.90;;;;;;5013541;28;20996;-51
2021/09/07 06:47:01;;;;;;;18.03;13.37;;;18.80;99.90;;;;;;5013906;28;20437;-51
2021/09/07 06:49:28;;;;;;;17.10;13.60;;;18.70;99.90;;;;;;5013705;28;20498;-51
2021/09/07 06:51:56;;;;;;;16.80;13.07;;;18.70;99.90;;;;;;5015257;28;20999;-49
2021/09/07 06:54:23;;;;;;;18.20;14.07;;;18.60;99.90;;;;;;5014428;28;20542;-48
2021/09/07 06:56:49;;;;;;;16.00;12.23;;;18.50;99.90;;;;;;5014549;28;20443;-50
2021/09/07 06:59:16;;;;;;;17.77;12.50;;;18.50;99.90;;;;;;5012613;28;20538;-51
2021/09/07 07:01:42;;;;;;;13.77;12.30;;;18.50;99.90;;;;;;5013682;28;20463;-51
2021/09/07 07:04:09;;;;;;;14.67;13.03;;;18.60;99.90;;;;;;5013304;28;20440;-50
2021/09/07 07:06:36;;;;;;;14.87;12.50;;;18.60;99.90;;;;;;5013120;28;20969;-50
2021/09/07 07:09:04;;;;;;;19.03;12.70;;;18.60;99.90;;;;;;5012425;28;20479;-50
2021/09/07 07:11:30;;;;;;;16.30;11.50;;;18.70;99.90;;;;;;5012513;28;20478;-50
2021/09/07 07:13:57;;;;;;;15.93;12.50;;;18.70;99.90;;;;;;5012915;28;20466;-51
2021/09/07 07:16:23;;;;;;;18.23;11.97;;;18.80;99.90;;;;;;5012721;28;20439;-50
2021/09/07 07:18:50;;;;;;;16.10;11.20;;;18.80;99.90;;;;;;5012561;28;20447;-51
2021/09/07 07:21:17;;;;;;;14.23;11.07;;;18.80;99.90;;;;;;5012796;28;20541;-50
2021/09/07 07:23:43;;;;;;;15.60;10.80;;;18.80;99.90;;;;;;5013274;28;20435;-50
2021/09/07 07:26:11;;;;;;;11.80;10.60;;;18.90;99.90;;;;;;5012573;28;20434;-50
2021/09/07 07:28:38;;;;;;;16.03;11.60;;;18.90;99.90;;;;;;5012754;28;20716;-49
2021/09/07 07:31:05;;;;;;;12.77;11.10;;;18.90;99.90;;;;;;5012889;28;20463;-51
2021/09/07 07:33:31;;;;;;;16.53;10.43;;;19.00;99.90;;;;;;5012694;28;20810;-49
2021/09/07 07:35:58;;;;;;;15.80;10.50;;;18.90;99.90;;;;;;5012508;28;20884;-50
2021/09/07 07:38:25;;;;;;;12.97;10.40;;;18.90;99.90;;;;;;5012513;28;20447;-59
2021/09/07 07:40:51;;;;;;;13.20;11.70;;;18.90;99.90;;;;;;5012620;28;20431;-50
2021/09/07 07:43:23;;;;;;;16.00;11.03;;;18.90;99.90;;;;;;5012851;28;20442;-50
2021/09/07 07:45:50;;;;;;;17.10;11.80;;;19.00;99.90;;;;;;5012910;28;20435;-50
2021/09/07 07:48:17;;;;;;;12.90;10.30;;;19.00;99.90;;;;;;5012707;28;20443;-51
2021/09/07 07:50:43;;;;;;;12.47;11.17;;;19.00;99.90;;;;;;5012871;28;20479;-50
2021/09/07 07:53:10;;;;;;;12.53;10.07;;;19.00;99.90;;;;;;5012930;28;20818;-51
2021/09/07 07:55:37;;;;;;;14.43;9.93;;;19.10;99.90;;;;;;5011947;28;20451;-50
2021/09/07 07:58:03;;;;;;;14.83;11.03;;;19.10;99.90;;;;;;5012399;28;20468;-49
2021/09/07 08:00:31;;;;;;;14.03;9.43;;;19.10;99.90;;;;;;5012348;28;20820;-50
2021/09/07 08:02:58;;;;;;;19.70;9.50;;;19.10;99.90;;;;;;5012420;28;20456;-51
2021/09/07 08:05:25;;;;;;;11.27;9.30;;;19.10;99.90;;;;;;5012029;28;20436;-49
2021/09/07 08:07:51;;;;;;;10.53;8.80;;;19.20;99.90;;;;;;5012979;28;20511;-51
2021/09/07 08:10:18;;;;;;;11.20;9.73;;;19.30;99.90;;;;;;5012694;28;20494;-48
2021/09/07 08:12:44;;;;;;;13.33;10.00;;;19.30;99.90;;;;;;5011795;28;20514;-51
2021/09/07 08:15:12;;;;;;;12.80;10.47;;;19.40;99.90;;;;;;5011843;28;20439;-50
2021/09/07 08:17:40;;;;;;;12.03;10.13;;;19.40;99.90;;;;;;5011456;28;20852;-50
2021/09/07 08:20:09;;;;;;;16.47;10.83;;;19.50;99.90;;;;;;5011959;28;20913;-49
2021/09/07 08:22:35;;;;;;;14.90;11.53;;;19.50;99.90;;;;;;5011299;28;20455;-51
2021/09/07 08:25:02;;;;;;;14.87;11.50;;;19.50;99.90;;;;;;5011663;28;20443;-50
2021/09/07 08:27:29;;;;;;;13.03;10.60;;;19.60;99.90;;;;;;5011909;28;20442;-50
2021/09/07 08:29:55;;;;;;;15.60;11.23;;;19.50;99.90;;;;;;5011309;28;20503;-49
2021/09/07 08:32:22;;;;;;;16.27;10.67;;;19.60;99.90;;;;;;5011471;28;20996;-50
2021/09/07 08:34:50;;;;;;;16.90;11.50;;;19.70;99.90;;;;;;5011816;28;20452;-50
2021/09/07 08:37:17;;;;;;;16.80;12.83;;;19.70;99.90;;;;;;5011436;28;20871;-50
2021/09/07 08:39:45;;;;;;;16.03;12.07;;;19.80;99.90;;;;;;5011622;28;20451;-50
2021/09/07 08:42:13;;;;;;;17.90;12.70;;;19.80;99.90;;;;;;5011531;28;20456;-49
2021/09/07 08:44:45;;;;;;;13.63;11.50;;;20.00;99.90;;;;;;5011416;28;20432;-50
2021/09/07 08:47:14;;;;;;;18.80;13.80;;;20.00;99.90;;;;;;5011348;28;20523;-49
2021/09/07 08:49:41;;;;;;;19.00;14.00;;;20.00;99.90;;;;;;5010431;28;20479;-51
2021/09/07 08:52:11;;;;;;;16.40;12.77;;;20.00;99.90;;;;;;5009291;28;20468;-49
2021/09/07 08:54:37;;;;;;;14.70;11.73;;;20.00;99.90;;;;;;5011510;28;20441;-50
2021/09/07 08:57:04;;;;;;;16.23;12.90;;;20.20;99.90;;;;;;5011441;28;20451;-50
2021/09/07 08:59:31;;;;;;;14.17;12.00;;;20.10;99.90;;;;;;5009736;28;20461;-50
2021/09/07 09:02:10;;;;;;;14.23;11.70;;;20.20;99.90;;;;;;5011340;28;20452;-50
2021/09/07 09:04:37;;;;;;;24.23;13.47;;;20.20;99.90;;;;;;5011814;28;20930;-51
2021/09/07 09:07:04;;;;;;;18.90;11.20;;;20.20;99.90;;;;;;5011507;28;20444;-50
2021/09/07 09:09:39;;;;;;;16.37;12.03;;;20.30;99.90;;;;;;5011395;28;20974;-51
2021/09/07 09:12:07;;;;;;;15.73;13.03;;;20.30;99.90;;;;;;5010932;28;20483;-50
2021/09/07 09:14:38;;;;;;;13.73;11.33;;;20.40;99.90;;;;;;5010735;28;20500;-50
2021/09/07 09:17:24;;;;;;;14.00;12.03;;;20.40;99.90;;;;;;5010557;28;20434;-51
2021/09/07 09:19:52;;;;;;;16.30;10.93;;;20.30;99.90;;;;;;5010370;28;20452;-51
2021/09/07 09:22:19;;;;;;;14.10;11.63;;;20.40;99.90;;;;;;5012030;28;20461;-51
2021/09/07 09:24:48;;;;;;;15.83;13.27;;;20.50;99.90;;;;;;5016781;28;20437;-51
2021/09/07 09:27:15;;;;;;;13.57;11.60;;;20.50;99.90;;;;;;5014857;28;20435;-50
2021/09/07 09:29:43;;;;;;;17.73;12.43;;;20.50;99.90;;;;;;5014692;28;20556;-51
2021/09/07 09:32:12;;;;;;;15.10;12.87;;;20.60;99.90;;;;;;5014907;28;20896;-51
2021/09/07 09:34:40;;;;;;;14.03;11.53;;;20.50;99.90;;;;;;5015019;28;20453;-49
2021/09/07 09:37:08;;;;;;;12.97;11.57;;;20.50;99.90;;;;;;5014900;28;20448;-49
2021/09/07 09:39:37;;;;;;;17.07;11.23;;;20.50;99.90;;;;;;5014540;28;20775;-50
2021/09/07 09:42:06;;;;;;;19.37;12.37;;;20.60;99.90;;;;;;5014631;28;20867;-50
2021/09/07 09:44:34;;;;;;;14.50;11.87;;;20.70;99.90;;;;;;5014781;28;20444;-50
2021/09/07 09:47:00;;;;;;;14.87;11.93;;;20.70;99.90;;;;;;5014736;28;20468;-50
2021/09/07 09:49:30;;;;;;;14.73;11.70;;;20.70;99.90;;;;;;5012911;28;20500;-49
2021/09/07 09:52:02;;;;;;;14.73;11.80;;;20.70;99.90;;;;;;5014460;28;20481;-51
2021/09/07 09:54:30;;;;;;;15.43;12.00;;;20.70;99.90;;;;;;5014704;28;20474;-49
2021/09/07 09:56:58;;;;;;;21.83;12.13;;;20.60;99.90;;;;;;5014329;28;20440;-50
2021/09/07 09:59:28;;;;;;;17.27;12.10;;;20.60;99.90;;;;;;5014349;28;20448;-50
2021/09/07 10:01:55;;;;;;;13.20;9.90;;;20.70;99.90;;;;;;5014013;28;20456;-50
2021/09/07 10:04:23;;;;;;;15.37;11.57;;;20.80;99.90;;;;;;5014464;28;20974;-50
2021/09/07 10:06:51;;;;;;;14.33;10.53;;;20.80;99.90;;;;;;5014406;28;20437;-50
2021/09/07 10:09:18;;;;;;;14.33;11.03;;;20.80;99.90;;;;;;5013901;28;20436;-51
2021/09/07 10:11:50;;;;;;;14.03;11.20;;;20.80;99.90;;;;;;5014391;28;20551;-51
2021/09/07 10:14:19;;;;;;;14.17;12.40;;;20.90;99.90;;;;;;5014014;28;20532;-50
2021/09/07 10:16:54;;;;;;;20.90;11.63;;;20.90;99.90;;;;;;5014281;28;20519;-49
2021/09/07 10:19:45;;;;;;;18.00;10.80;;;21.00;99.40;;;;;;5013841;28;20433;-50
2021/09/07 10:24:59;;;;;;;13.40;11.60;;;21.10;98.90;;;;;;5014187;28;20437;-50
2021/09/07 10:28:03;;;;;;;13.33;11.93;;;21.20;98.90;;;;;;5013510;28;20433;-50
2021/09/07 10:30:56;;;;;;;11.30;9.60;;;21.40;98.50;;;;;;5012887;28;20497;-50
2021/09/07 10:33:34;;;;;;;15.30;10.20;;;21.30;97.90;;;;;;5013768;28;20955;-49
2021/09/07 10:36:06;;;;;;;11.90;9.20;;;21.40;98.20;;;;;;5014073;28;20446;-51
2021/09/07 10:38:37;;;;;;;10.77;9.53;;;21.50;98.30;;;;;;5014557;28;20934;-51
2021/09/07 10:41:04;;;;;;;13.87;10.30;;;21.40;97.80;;;;;;5014011;28;20526;-51
2021/09/07 10:43:51;;;;;;;10.30;9.13;;;21.60;97.80;;;;;;5014394;28;20937;-50
2021/09/07 10:46:42;;;;;;;13.33;9.70;;;21.80;97.20;;;;;;5013570;28;20505;-51
2021/09/07 10:49:24;;;;;;;10.90;8.57;;;21.90;96.80;;;;;;5013447;28;20435;-50
2021/09/07 10:52:08;;;;;;;10.63;8.30;;;22.00;96.70;;;;;;5013339;28;20864;-51
2021/09/07 10:54:40;;;;;;;9.73;7.20;;;22.10;96.30;;;;;;5013369;28;20440;-50
2021/09/07 10:57:06;;;;;;;9.07;8.17;;;22.20;96.30;;;;;;5013124;28;20735;-49
2021/09/07 10:59:51;;;;;;;9.80;8.57;;;22.30;96.40;;;;;;5012845;28;20982;-49
2021/09/07 11:02:37;;;;;;;11.63;7.73;;;22.50;96.20;;;;;;5013070;28;20491;-51
2021/09/07 11:05:06;;;;;;;10.67;8.33;;;22.70;96.30;;;;;;5013332;28;20534;-51
2021/09/07 11:07:40;;;;;;;11.43;8.13;;;22.80;96.30;;;;;;5012733;28;20432;-50
2021/09/07 11:10:07;;;;;;;7.77;7.03;;;22.90;96.10;;;;;;5013186;28;20468;-49
2021/09/07 11:12:35;;;;;;;12.47;7.67;;;23.00;95.80;;;;;;5011559;28;20531;-51
2021/09/07 11:15:04;;;;;;;11.43;7.20;;;23.10;95.60;;;;;;5012821;28;20441;-50
2021/09/07 11:17:31;;;;;;;11.97;8.57;;;23.20;95.30;;;;;;5013652;28;20799;-50
2021/09/07 11:19:58;;;;;;;8.73;7.30;;;23.30;95.00;;;;;;5013252;28;20500;-52
2021/09/07 11:22:30;;;;;;;9.30;7.50;;;23.30;94.90;;;;;;5011321;28;20916;-49
2021/09/07 11:25:08;;;;;;;11.00;7.80;;;23.40;94.50;;;;;;5012648;28;20434;-50
2021/09/07 11:28:00;;;;;;;9.13;8.03;;;23.40;94.40;;;;;;5013048;28;20450;-51
2021/09/07 11:30:30;;;;;;;12.40;6.70;;;23.50;93.90;;;;;;4998153;28;20497;-51
2021/09/07 11:33:03;;;;;;;11.80;9.50;;;23.50;94.10;;;;;;5012217;28;20470;-51
2021/09/07 11:35:33;;;;;;;10.83;8.30;;;23.50;94.00;;;;;;5012604;28;20950;-50
2021/09/07 11:38:02;;;;;;;7.93;7.10;;;23.40;94.00;;;;;;5011914;28;20437;-50
2021/09/07 11:40:29;;;;;;;10.33;7.90;;;23.50;94.10;;;;;;5012911;28;20975;-50
2021/09/07 11:42:57;;;;;;;8.77;7.10;;;23.40;93.90;;;;;;5012134;28;20459;-49
2021/09/07 11:45:26;;;;;;;9.17;7.87;;;23.30;93.80;;;;;;5012038;28;20441;-49
2021/09/07 11:47:54;;;;;;;8.73;7.80;;;23.20;93.90;;;;;;5011893;28;21030;-51
2021/09/07 11:50:23;;;;;;;9.07;7.67;;;23.10;93.90;;;;;;5012076;28;21037;-51
2021/09/07 11:52:51;;;;;;;9.60;8.23;;;23.10;94.10;;;;;;5014138;28;20452;-51
2021/09/07 11:55:47;;;;;;;12.13;8.20;;;23.10;94.20;;;;;;5012789;28;20446;-50
2021/09/07 11:58:39;;;;;;;8.83;7.43;;;23.20;93.70;;;;;;5011710;28;20449;-50
2021/09/07 12:01:11;;;;;;;9.97;7.83;;;23.20;93.70;;;;;;4997725;28;20479;-50
2021/09/07 12:03:50;;;;;;;12.33;8.37;;;23.20;93.90;;;;;;5012410;28;20468;-50
2021/09/07 12:06:20;;;;;;;8.90;7.90;;;23.10;93.60;;;;;;5011606;28;20468;-51
2021/09/07 12:08:49;;;;;;;9.87;8.20;;;23.10;93.80;;;;;;5011033;28;20534;-50
2021/09/07 12:11:31;;;;;;;9.63;8.63;;;23.10;94.00;;;;;;5011403;28;20488;-50
2021/09/07 12:14:16;;;;;;;11.10;10.00;;;23.10;93.90;;;;;;5010729;28;20438;-50
2021/09/07 12:16:53;;;;;;;13.83;9.23;;;23.20;94.00;;;;;;5012268;28;20623;-50
2021/09/07 12:19:21;;;;;;;9.97;8.63;;;23.20;93.90;;;;;;5011596;28;20444;-50
2021/09/07 12:22:08;;;;;;;11.57;8.77;;;23.20;94.00;;;;;;5011820;28;20561;-48
2021/09/07 12:24:36;;;;;;;11.87;8.60;;;23.10;94.10;;;;;;5011880;28;20449;-49
2021/09/07 12:30:12;;;;;;;12.60;9.80;;;23.00;94.60;;;;;;5108336;27;20535;-49
2021/09/07 12:32:51;;;;;;;11.60;9.83;;;22.80;95.10;;;;;;5108250;28;20469;-49
2021/09/07 12:35:34;;;;;;;14.83;10.13;;;22.70;95.50;;;;;;5108028;28;20952;-49
2021/09/07 12:38:01;;;;;;;14.03;9.90;;;22.60;95.70;;;;;;5107754;28;20951;-51
2021/09/07 12:40:29;;;;;;;11.43;9.20;;;22.60;95.80;;;;;;5113395;22;20581;-53
2021/09/07 12:42:56;;;;;;;10.17;8.90;;;22.40;95.80;;;;;;5067856;28;20430;-53